Time;durP1;ratioP1;P1;durP2;ratioP2;P2;SDS_P1;SDS_P2;PMS_P1;PMS_P2;Temp;Humidity;BMP_temperature;BMP_pressure;BME280_temperature;BME280_humidity;BME280_pressure;Samples;Min_cycle;Max_cycle;Signal;HPM_P1;HPM_P2
2022/04/02 00:00:07;;;;;;;;;;;;;;;;;;5015648;28;19913;-22
2022/04/02 00:02:33;;;;;;;;;;;;;;;;;;5015549;28;19917;-23
2022/04/02 00:04:59;;;;;;;;;;;;;;;;;;5015685;28;19933;-21
2022/04/02 00:07:25;;;;;;;;;;;;;;;;;;5015453;28;20012;-21
2022/04/02 00:09:51;;;;;;;;;;;;;;;;;;5015805;28;20006;-25
2022/04/02 00:12:17;;;;;;;;;;;;;;;;;;5015421;28;20309;-20
2022/04/02 00:14:45;;;;;;;;;;;;;;;;;;5015739;28;19910;-25
2022/04/02 00:17:11;;;;;;;;;;;;;;;;;;5015426;28;19932;-21
2022/04/02 00:19:37;;;;;;;;;;;;;;;;;;5015697;28;19913;-20
2022/04/02 00:22:03;;;;;;;;;;;;;;;;;;5015848;28;19910;-21
2022/04/02 00:24:29;;;;;;;;;;;;;;;;;;5015211;28;19921;-20
2022/04/02 00:26:55;;;;;;;;;;;;;;;;;;4997977;28;19965;-21
2022/04/02 00:29:21;;;;;;;;;;;;;;;;;;5015240;28;19909;-21
2022/04/02 00:31:47;;;;;;;;;;;;;;;;;;5015414;28;19925;-21
2022/04/02 00:34:13;;;;;;;;;;;;;;;;;;5015122;28;19909;-20
2022/04/02 00:36:39;;;;;;;;;;;;;;;;;;5015445;28;19914;-23
2022/04/02 00:39:05;;;;;;;;;;;;;;;;;;5015106;28;19921;-22
2022/04/02 00:41:31;;;;;;;;;;;;;;;;;;5015085;28;19994;-22
2022/04/02 00:43:57;;;;;;;;;;;;;;;;;;5015063;28;19915;-23
2022/04/02 00:46:23;;;;;;;;;;;;;;;;;;5015014;28;19948;-21
2022/04/02 00:48:50;;;;;;;;;;;;;;;;;;5014973;28;19960;-23
2022/04/02 00:51:16;;;;;;;;;;;;;;;;;;5015339;28;20333;-20
2022/04/02 00:53:42;;;;;;;;;;;;;;;;;;5014888;28;19918;-20
2022/04/02 00:56:08;;;;;;;;;;;;;;;;;;5015017;28;19969;-20
2022/04/02 00:58:34;;;;;;;;;;;;;;;;;;5015222;28;19991;-22
2022/04/02 01:01:00;;;;;;;;;;;;;;;;;;5015155;28;19975;-21
2022/04/02 01:03:27;;;;;;;;;;;;;;;;;;5014912;28;19910;-21
2022/04/02 01:05:53;;;;;;;;;;;;;;;;;;5014861;28;20004;-21
2022/04/02 01:08:19;;;;;;;;;;;;;;;;;;5014813;28;19913;-22
2022/04/02 01:10:45;;;;;;;;;;;;;;;;;;5014914;28;19925;-20
2022/04/02 01:13:11;;;;;;;;;;;;;;;;;;5014723;28;19924;-22
2022/04/02 01:15:37;;;;;;;;;;;;;;;;;;5014714;28;19910;-21
2022/04/02 01:18:03;;;;;;;;;;;;;;;;;;5016048;28;19913;-21
2022/04/02 01:20:29;;;;;;;;;;;;;;;;;;5018917;28;20348;-22
2022/04/02 01:22:55;;;;;;;;;;;;;;;;;;5018453;28;20357;-24
2022/04/02 01:25:21;;;;;;;;;;;;;;;;;;5018314;28;19932;-21
2022/04/02 01:27:47;;;;;;;;;;;;;;;;;;5018533;28;19917;-23
2022/04/02 01:30:14;;;;;;;;;;;;;;;;;;5018765;28;20012;-25
2022/04/02 01:32:40;;;;;;;;;;;;;;;;;;5018584;28;19937;-21
2022/04/02 01:35:06;;;;;;;;;;;;;;;;;;5018438;28;20352;-22
2022/04/02 01:37:32;;;;;;;;;;;;;;;;;;5018631;28;19963;-21
2022/04/02 01:39:58;;;;;;;;;;;;;;;;;;5018385;28;19913;-21
2022/04/02 01:42:25;;;;;;;;;;;;;;;;;;5018268;28;19917;-22
2022/04/02 01:44:51;;;;;;;;;;;;;;;;;;5018209;28;19932;-21
2022/04/02 01:47:17;;;;;;;;;;;;;;;;;;5018872;28;19928;-21
2022/04/02 01:49:43;;;;;;;;;;;;;;;;;;5018103;28;20348;-22
2022/04/02 01:52:09;;;;;;;;;;;;;;;;;;5018318;28;19909;-24
2022/04/02 01:54:35;;;;;;;;;;;;;;;;;;5018657;28;19913;-21
2022/04/02 01:57:01;;;;;;;;;;;;;;;;;;5018276;28;20391;-25
2022/04/02 01:59:27;;;;;;;;;;;;;;;;;;5017944;28;19914;-24
2022/04/02 02:01:54;;;;;;;;;;;;;;;;;;5018104;28;19967;-21
2022/04/02 02:04:20;;;;;;;;;;;;;;;;;;5017840;28;19979;-22
2022/04/02 02:06:46;;;;;;;;;;;;;;;;;;5018256;28;19918;-22
2022/04/02 02:09:12;;;;;;;;;;;;;;;;;;5017833;28;19909;-22
2022/04/02 02:11:40;;;;;;;;;;;;;;;;;;5018095;28;19914;-21
2022/04/02 02:14:06;;;;;;;;;;;;;;;;;;5017574;28;20265;-23
2022/04/02 02:16:32;;;;;;;;;;;;;;;;;;5017631;28;19913;-21
2022/04/02 02:18:58;;;;;;;;;;;;;;;;;;5017541;28;19913;-20
2022/04/02 02:21:24;;;;;;;;;;;;;;;;;;5017442;28;19944;-23
2022/04/02 02:23:50;;;;;;;;;;;;;;;;;;5017462;28;19922;-24
2022/04/02 02:26:16;;;;;;;;;;;;;;;;;;5017726;28;20299;-22
2022/04/02 02:28:43;;;;;;;;;;;;;;;;;;5017106;28;20269;-20
2022/04/02 02:31:08;;;;;;;;;;;;;;;;;;5016363;28;19913;-21
2022/04/02 02:36:19;;;;;;;;;;;;;;;;;;5017356;28;19975;-20
2022/04/02 02:38:45;;;;;;;;;;;;;;;;;;5017257;28;19910;-24
2022/04/02 02:41:11;;;;;;;;;;;;;;;;;;5017971;28;19936;-20
2022/04/02 02:43:37;;;;;;;;;;;;;;;;;;5017043;28;19913;-20
2022/04/02 02:46:03;;;;;;;;;;;;;;;;;;5017101;28;20004;-22
2022/04/02 02:48:29;;;;;;;;;;;;;;;;;;5016944;28;19924;-21
2022/04/02 02:50:55;;;;;;;;;;;;;;;;;;5017448;28;19913;-20
2022/04/02 02:53:21;;;;;;;;;;;;;;;;;;5017182;28;19919;-21
2022/04/02 02:55:50;;;;;;;;;;;;;;;;;;5017124;28;19988;-25
2022/04/02 02:58:16;;;;;;;;;;;;;;;;;;5016789;28;19910;-23
2022/04/02 03:00:42;;;;;;;;;;;;;;;;;;5017005;28;20397;-20
2022/04/02 03:03:08;;;;;;;;;;;;;;;;;;5016555;28;20256;-24
2022/04/02 03:05:34;;;;;;;;;;;;;;;;;;5017210;28;19917;-22
2022/04/02 03:08:00;;;;;;;;;;;;;;;;;;5016597;28;20352;-25
2022/04/02 03:10:29;;;;;;;;;;;;;;;;;;5016828;28;19909;-24
2022/04/02 03:12:54;;;;;;;;;;;;;;;;;;5016530;28;19984;-22
2022/04/02 03:15:20;;;;;;;;;;;;;;;;;;5016559;28;19909;-22
2022/04/02 03:17:46;;;;;;;;;;;;;;;;;;5016756;28;20000;-21
2022/04/02 03:20:12;;;;;;;;;;;;;;;;;;5016404;28;20004;-22
2022/04/02 03:22:40;;;;;;;;;;;;;;;;;;5016367;28;19920;-21
2022/04/02 03:25:06;;;;;;;;;;;;;;;;;;5016135;28;19928;-25
2022/04/02 03:27:32;;;;;;;;;;;;;;;;;;5016943;28;19913;-21
2022/04/02 03:29:58;;;;;;;;;;;;;;;;;;5016516;28;19936;-21
2022/04/02 03:32:24;;;;;;;;;;;;;;;;;;5016710;28;19921;-21
2022/04/02 03:34:50;;;;;;;;;;;;;;;;;;5016409;28;19924;-23
2022/04/02 03:37:16;;;;;;;;;;;;;;;;;;5016325;28;19914;-25
2022/04/02 03:39:42;;;;;;;;;;;;;;;;;;5016258;28;19913;-24
2022/04/02 03:42:09;;;;;;;;;;;;;;;;;;5015611;28;19909;-22
2022/04/02 03:44:35;;;;;;;;;;;;;;;;;;5015920;28;19918;-22
2022/04/02 03:47:10;;;;;;;;;;;;;;;;;;5015795;28;19929;-21
2022/04/02 03:49:36;;;;;;;;;;;;;;;;;;5015828;28;19920;-22
2022/04/02 03:52:02;;;;;;;;;;;;;;;;;;5015620;28;19949;-20
2022/04/02 03:54:28;;;;;;;;;;;;;;;;;;4998370;28;19964;-21
2022/04/02 03:56:54;;;;;;;;;;;;;;;;;;5015844;28;19921;-22
2022/04/02 03:59:20;;;;;;;;;;;;;;;;;;5015824;28;20312;-22
2022/04/02 04:01:46;;;;;;;;;;;;;;;;;;5015473;28;19951;-21
2022/04/02 04:04:13;;;;;;;;;;;;;;;;;;5015359;28;19914;-21
2022/04/02 04:06:38;;;;;;;;;;;;;;;;;;5015374;28;19913;-23
2022/04/02 04:09:04;;;;;;;;;;;;;;;;;;5015357;28;19964;-25
2022/04/02 04:11:30;;;;;;;;;;;;;;;;;;5015629;28;19920;-24
2022/04/02 04:13:56;;;;;;;;;;;;;;;;;;5015228;28;19909;-21
2022/04/02 04:16:22;;;;;;;;;;;;;;;;;;5015257;28;19914;-25
2022/04/02 04:18:48;;;;;;;;;;;;;;;;;;5015305;28;20253;-21
2022/04/02 04:21:14;;;;;;;;;;;;;;;;;;5014925;28;19944;-23
2022/04/02 04:23:40;;;;;;;;;;;;;;;;;;5011162;28;19929;-22
2022/04/02 04:26:06;;;;;;;;;;;;;;;;;;4995460;28;19910;-20
2022/04/02 04:28:32;;;;;;;;;;;;;;;;;;4994952;28;19984;-21
2022/04/02 04:30:58;;;;;;;;;;;;;;;;;;4995420;28;20289;-21
2022/04/02 04:33:24;;;;;;;;;;;;;;;;;;4977786;28;19972;-22
2022/04/02 04:35:51;;;;;;;;;;;;;;;;;;4977716;28;19937;-21
2022/04/02 04:38:18;;;;;;;;;;;;;;;;;;4977763;28;20452;-23
2022/04/02 04:40:44;;;;;;;;;;;;;;;;;;4995037;28;19917;-26
2022/04/02 04:43:10;;;;;;;;;;;;;;;;;;4995267;28;20305;-22
2022/04/02 04:45:38;;;;;;;;;;;;;;;;;;4995111;28;19948;-21
2022/04/02 04:48:04;;;;;;;;;;;;;;;;;;4977670;28;20090;-24
2022/04/02 04:50:31;;;;;;;;;;;;;;;;;;4995375;28;20345;-21
2022/04/02 04:52:57;;;;;;;;;;;;;;;;;;4994033;28;20391;-24
2022/04/02 04:55:23;;;;;;;;;;;;;;;;;;4994838;28;20257;-20
2022/04/02 04:57:49;;;;;;;;;;;;;;;;;;4994890;28;20318;-22
2022/04/02 05:00:16;;;;;;;;;;;;;;;;;;4994920;28;20312;-24
2022/04/02 05:02:45;;;;;;;;;;;;;;;;;;4994826;28;19918;-21
2022/04/02 05:05:12;;;;;;;;;;;;;;;;;;4995557;28;19914;-21
2022/04/02 05:07:41;;;;;;;;;;;;;;;;;;4977644;28;19967;-24
2022/04/02 05:10:07;;;;;;;;;;;;;;;;;;4994884;28;19996;-23
2022/04/02 05:12:33;;;;;;;;;;;;;;;;;;4994981;28;19997;-22
2022/04/02 05:14:59;;;;;;;;;;;;;;;;;;4995312;28;19910;-22
2022/04/02 05:17:26;;;;;;;;;;;;;;;;;;4978205;28;19914;-29
2022/04/02 05:19:52;;;;;;;;;;;;;;;;;;4994764;28;19937;-24
2022/04/02 05:22:18;;;;;;;;;;;;;;;;;;4994673;28;19921;-25
2022/04/02 05:24:44;;;;;;;;;;;;;;;;;;4994398;28;19926;-21
2022/04/02 05:27:11;;;;;;;;;;;;;;;;;;4977325;28;19925;-22
2022/04/02 05:29:37;;;;;;;;;;;;;;;;;;4995340;28;19918;-20
2022/04/02 05:32:03;;;;;;;;;;;;;;;;;;4994685;28;19993;-20
2022/04/02 05:34:30;;;;;;;;;;;;;;;;;;4977553;28;20008;-20
2022/04/02 05:36:56;;;;;;;;;;;;;;;;;;4994912;28;20000;-24
2022/04/02 05:39:22;;;;;;;;;;;;;;;;;;4994731;28;20017;-25
2022/04/02 05:41:48;;;;;;;;;;;;;;;;;;4994816;28;20000;-22
2022/04/02 05:44:14;;;;;;;;;;;;;;;;;;4994426;28;19925;-21
2022/04/02 05:46:40;;;;;;;;;;;;;;;;;;4994248;28;19956;-21
2022/04/02 05:49:06;;;;;;;;;;;;;;;;;;4994332;28;19949;-25
2022/04/02 05:51:33;;;;;;;;;;;;;;;;;;4994819;28;19972;-24
2022/04/02 05:53:59;;;;;;;;;;;;;;;;;;4994135;28;20258;-22
2022/04/02 05:56:26;;;;;;;;;;;;;;;;;;4994086;28;19949;-28
2022/04/02 05:58:52;;;;;;;;;;;;;;;;;;4994305;28;19936;-25
2022/04/02 06:01:18;;;;;;;;;;;;;;;;;;4994756;28;19922;-22
2022/04/02 06:03:44;;;;;;;;;;;;;;;;;;4994773;28;19918;-22
2022/04/02 06:06:11;;;;;;;;;;;;;;;;;;4997868;28;19972;-25
2022/04/02 06:08:37;;;;;;;;;;;;;;;;;;4997895;28;19917;-21
2022/04/02 06:11:04;;;;;;;;;;;;;;;;;;4997475;28;20391;-22
2022/04/02 06:13:30;;;;;;;;;;;;;;;;;;4996928;28;19914;-25
2022/04/02 06:15:56;;;;;;;;;;;;;;;;;;4997020;28;20289;-21
2022/04/02 06:18:22;;;;;;;;;;;;;;;;;;4997177;28;19914;-24
2022/04/02 06:20:48;;;;;;;;;;;;;;;;;;4997147;28;20210;-23
2022/04/02 06:23:14;;;;;;;;;;;;;;;;;;4996765;28;19929;-23
2022/04/02 06:25:40;;;;;;;;;;;;;;;;;;5016348;28;20356;-22
2022/04/02 06:28:06;;;;;;;;;;;;;;;;;;5017040;28;19952;-21
2022/04/02 06:30:32;;;;;;;;;;;;;;;;;;5016610;28;19909;-22
2022/04/02 06:33:00;;;;;;;;;;;;;;;;;;5016413;28;19914;-25
2022/04/02 06:35:26;;;;;;;;;;;;;;;;;;5016957;28;19909;-23
2022/04/02 06:37:53;;;;;;;;;;;;;;;;;;5016741;28;20352;-26
2022/04/02 06:40:19;;;;;;;;;;;;;;;;;;5016636;28;19913;-24
2022/04/02 06:42:45;;;;;;;;;;;;;;;;;;5016846;28;19913;-24
2022/04/02 06:45:11;;;;;;;;;;;;;;;;;;4999360;28;20352;-21
2022/04/02 06:47:37;;;;;;;;;;;;;;;;;;5016873;28;19918;-20
2022/04/02 06:50:04;;;;;;;;;;;;;;;;;;5016682;28;20225;-21
2022/04/02 06:52:30;;;;;;;;;;;;;;;;;;5016350;28;19910;-20
2022/04/02 06:54:56;;;;;;;;;;;;;;;;;;5016301;28;19913;-21
2022/04/02 06:57:22;;;;;;;;;;;;;;;;;;5016912;28;20024;-22
2022/04/02 06:59:48;;;;;;;;;;;;;;;;;;5016598;28;20260;-20
2022/04/02 07:02:15;;;;;;;;;;;;;;;;;;5016486;28;19913;-21
2022/04/02 07:04:41;;;;;;;;;;;;;;;;;;5016451;28;20368;-22
2022/04/02 07:07:07;;;;;;;;;;;;;;;;;;5016066;28;19928;-23
2022/04/02 07:09:34;;;;;;;;;;;;;;;;;;5016119;28;20375;-21
2022/04/02 07:12:00;;;;;;;;;;;;;;;;;;5016149;28;19919;-24
2022/04/02 07:14:27;;;;;;;;;;;;;;;;;;5015646;28;20362;-22
2022/04/02 07:16:53;;;;;;;;;;;;;;;;;;5015215;28;19914;-20
2022/04/02 07:19:20;;;;;;;;;;;;;;;;;;5016360;28;19910;-21
2022/04/02 07:21:46;;;;;;;;;;;;;;;;;;5015842;28;19927;-20
2022/04/02 07:24:12;;;;;;;;;;;;;;;;;;5015431;28;19929;-25
2022/04/02 07:26:40;;;;;;;;;;;;;;;;;;5016213;28;19920;-20
2022/04/02 07:29:06;;;;;;;;;;;;;;;;;;5016451;28;19917;-24
2022/04/02 07:31:32;;;;;;;;;;;;;;;;;;5015606;28;19913;-21
2022/04/02 07:33:59;;;;;;;;;;;;;;;;;;5015663;28;19964;-26
2022/04/02 07:36:25;;;;;;;;;;;;;;;;;;5016007;28;20408;-22
2022/04/02 07:38:53;;;;;;;;;;;;;;;;;;5015341;28;19909;-29
2022/04/02 07:41:22;;;;;;;;;;;;;;;;;;5014464;28;20226;-21
2022/04/02 07:43:48;;;;;;;;;;;;;;;;;;5015341;28;19913;-22
2022/04/02 07:46:14;;;;;;;;;;;;;;;;;;5015474;28;19964;-23
2022/04/02 07:48:42;;;;;;;;;;;;;;;;;;5015778;28;19918;-22
2022/04/02 07:51:09;;;;;;;;;;;;;;;;;;5015524;28;20341;-21
2022/04/02 07:53:36;;;;;;;;;;;;;;;;;;5015924;28;19917;-20
2022/04/02 07:56:02;;;;;;;;;;;;;;;;;;5015184;28;19925;-21
2022/04/02 07:58:29;;;;;;;;;;;;;;;;;;4997835;28;19909;-21
2022/04/02 08:00:57;;;;;;;;;;;;;;;;;;4997965;28;19940;-23
2022/04/02 08:03:25;;;;;;;;;;;;;;;;;;5015094;28;20266;-21
2022/04/02 08:05:55;;;;;;;;;;;;;;;;;;5015350;28;19909;-21
2022/04/02 08:08:22;;;;;;;;;;;;;;;;;;4998184;28;20375;-20
2022/04/02 08:10:48;;;;;;;;;;;;;;;;;;4997687;28;20320;-21
2022/04/02 08:13:14;;;;;;;;;;;;;;;;;;5015193;28;19917;-24
2022/04/02 08:15:41;;;;;;;;;;;;;;;;;;5014762;28;19917;-22
2022/04/02 08:18:07;;;;;;;;;;;;;;;;;;5014865;28;20260;-22
2022/04/02 08:20:33;;;;;;;;;;;;;;;;;;5015098;28;20281;-25
2022/04/02 08:23:01;;;;;;;;;;;;;;;;;;5014727;28;19968;-26
2022/04/02 08:25:27;;;;;;;;;;;;;;;;;;5014751;28;20012;-24
2022/04/02 08:27:54;;;;;;;;;;;;;;;;;;5013781;28;19917;-24
2022/04/02 08:30:22;;;;;;;;;;;;;;;;;;5014720;28;20012;-22
2022/04/02 08:32:48;;;;;;;;;;;;;;;;;;5015018;28;19956;-25
2022/04/02 08:35:15;;;;;;;;;;;;;;;;;;5015171;28;19971;-25
2022/04/02 08:37:42;;;;;;;;;;;;;;;;;;5014694;28;19920;-20
2022/04/02 08:40:08;;;;;;;;;;;;;;;;;;5014440;28;19951;-23
2022/04/02 08:42:36;;;;;;;;;;;;;;;;;;5014185;28;20222;-23
2022/04/02 08:45:02;;;;;;;;;;;;;;;;;;5014577;28;19983;-23
2022/04/02 08:47:28;;;;;;;;;;;;;;;;;;5014503;28;20230;-21
2022/04/02 08:49:54;;;;;;;;;;;;;;;;;;5014091;28;19964;-21
2022/04/02 08:52:20;;;;;;;;;;;;;;;;;;5014089;28;19909;-22
2022/04/02 08:54:48;;;;;;;;;;;;;;;;;;5014092;28;20005;-24
2022/04/02 08:57:14;;;;;;;;;;;;;;;;;;5014194;28;19925;-20
2022/04/02 08:59:40;;;;;;;;;;;;;;;;;;5014474;28;19924;-22
2022/04/02 09:02:06;;;;;;;;;;;;;;;;;;5013927;28;20352;-21
2022/04/02 09:04:33;;;;;;;;;;;;;;;;;;5014321;28;20236;-21
2022/04/02 09:07:00;;;;;;;;;;;;;;;;;;5013910;28;19913;-28
2022/04/02 09:09:28;;;;;;;;;;;;;;;;;;5013905;28;20260;-21
2022/04/02 09:11:54;;;;;;;;;;;;;;;;;;4996578;28;19928;-20
2022/04/02 09:14:22;;;;;;;;;;;;;;;;;;5013792;28;20345;-21
2022/04/02 09:16:48;;;;;;;;;;;;;;;;;;5014247;28;19920;-22
2022/04/02 09:19:14;;;;;;;;;;;;;;;;;;4996586;28;19963;-22
2022/04/02 09:21:40;;;;;;;;;;;;;;;;;;5013916;28;19971;-21
2022/04/02 09:24:06;;;;;;;;;;;;;;;;;;4989720;28;19958;-20
2022/04/02 09:26:34;;;;;;;;;;;;;;;;;;4995372;28;20004;-21
2022/04/02 09:29:00;;;;;;;;;;;;;;;;;;4977388;28;19953;-20
2022/04/02 09:31:26;;;;;;;;;;;;;;;;;;4994623;28;19914;-24
2022/04/02 09:33:53;;;;;;;;;;;;;;;;;;4994562;28;19910;-20
2022/04/02 09:36:19;;;;;;;;;;;;;;;;;;4994600;28;19924;-22
2022/04/02 09:38:45;;;;;;;;;;;;;;;;;;4995101;28;19953;-22
2022/04/02 09:41:11;;;;;;;;;;;;;;;;;;4998255;28;19945;-20
2022/04/02 09:43:37;;;;;;;;;;;;;;;;;;4998319;28;19925;-21
2022/04/02 09:46:03;;;;;;;;;;;;;;;;;;4998221;28;19968;-21
2022/04/02 09:48:29;;;;;;;;;;;;;;;;;;4998003;28;19964;-21
2022/04/02 09:50:56;;;;;;;;;;;;;;;;;;4998809;28;20246;-23
2022/04/02 09:53:22;;;;;;;;;;;;;;;;;;4998071;28;19921;-21
2022/04/02 09:55:48;;;;;;;;;;;;;;;;;;4998111;28;19914;-21
2022/04/02 09:58:14;;;;;;;;;;;;;;;;;;4998129;28;19934;-24
2022/04/02 10:00:40;;;;;;;;;;;;;;;;;;4998026;28;20017;-25
2022/04/02 10:03:08;;;;;;;;;;;;;;;;;;4997847;28;19914;-21
2022/04/02 10:05:34;;;;;;;;;;;;;;;;;;4998158;28;19996;-21
2022/04/02 10:08:01;;;;;;;;;;;;;;;;;;4998109;28;20360;-21
2022/04/02 10:10:29;;;;;;;;;;;;;;;;;;4998436;28;20398;-20
2022/04/02 10:12:55;;;;;;;;;;;;;;;;;;4997512;28;19914;-28
2022/04/02 10:15:21;;;;;;;;;;;;;;;;;;4997810;28;20321;-22
2022/04/02 10:17:50;;;;;;;;;;;;;;;;;;4997839;28;19953;-21
2022/04/02 10:20:16;;;;;;;;;;;;;;;;;;4997695;28;20308;-21
2022/04/02 10:22:42;;;;;;;;;;;;;;;;;;4997572;28;19914;-21
2022/04/02 10:25:10;;;;;;;;;;;;;;;;;;4997206;28;20322;-21
2022/04/02 10:27:37;;;;;;;;;;;;;;;;;;4997173;28;19917;-21
2022/04/02 10:30:03;;;;;;;;;;;;;;;;;;4997216;28;19980;-21
2022/04/02 10:32:30;;;;;;;;;;;;;;;;;;4997277;28;19997;-25
2022/04/02 10:34:59;;;;;;;;;;;;;;;;;;4997236;28;19913;-26
2022/04/02 10:37:26;;;;;;;;;;;;;;;;;;4997212;28;19988;-23
2022/04/02 10:39:52;;;;;;;;;;;;;;;;;;4997383;28;19917;-24
2022/04/02 10:42:19;;;;;;;;;;;;;;;;;;4979958;28;19920;-23
2022/04/02 10:44:45;;;;;;;;;;;;;;;;;;4997076;28;19929;-23
2022/04/02 10:47:11;;;;;;;;;;;;;;;;;;4996947;28;19913;-25
2022/04/02 10:49:37;;;;;;;;;;;;;;;;;;4997123;28;20269;-28
2022/04/02 10:52:03;;;;;;;;;;;;;;;;;;4996017;28;19996;-22
2022/04/02 10:54:29;;;;;;;;;;;;;;;;;;4997274;28;20020;-21
2022/04/02 10:56:55;;;;;;;;;;;;;;;;;;4996832;28;20268;-24
2022/04/02 10:59:21;;;;;;;;;;;;;;;;;;4997316;28;19925;-23
2022/04/02 11:01:49;;;;;;;;;;;;;;;;;;4996821;28;20230;-24
2022/04/02 11:04:15;;;;;;;;;;;;;;;;;;4997046;28;20328;-23
2022/04/02 11:06:41;;;;;;;;;;;;;;;;;;4996938;28;20013;-21
2022/04/02 11:09:07;;;;;;;;;;;;;;;;;;4996632;28;19918;-22
2022/04/02 11:11:33;;;;;;;;;;;;;;;;;;4996705;28;19968;-21
2022/04/02 11:13:59;;;;;;;;;;;;;;;;;;4996638;28;19913;-21
2022/04/02 11:16:25;;;;;;;;;;;;;;;;;;4996611;28;19968;-24
2022/04/02 11:19:54;;;;;;;;;;;;;;;;;;4996738;28;19910;-26
2022/04/02 11:21:37;;;;;;;;;;;;;;;;;;4996320;28;19984;-23
2022/04/02 11:24:03;;;;;;;;;;;;;;;;;;4996215;28;19921;-25
2022/04/02 11:26:29;;;;;;;;;;;;;;;;;;4996872;28;19914;-25
2022/04/02 11:28:55;;;;;;;;;;;;;;;;;;4996693;28;19929;-21
2022/04/02 11:31:21;;;;;;;;;;;;;;;;;;4996584;28;19921;-21
2022/04/02 11:33:47;;;;;;;;;;;;;;;;;;4996605;28;19914;-21
2022/04/02 11:36:13;;;;;;;;;;;;;;;;;;4979200;28;19913;-25
2022/04/02 11:38:39;;;;;;;;;;;;;;;;;;4996392;28;19913;-22
2022/04/02 11:41:05;;;;;;;;;;;;;;;;;;4996377;28;19918;-23
2022/04/02 11:43:31;;;;;;;;;;;;;;;;;;4996269;28;19960;-24
2022/04/02 11:45:57;;;;;;;;;;;;;;;;;;4996451;28;19913;-21
2022/04/02 11:48:23;;;;;;;;;;;;;;;;;;4996259;28;20236;-21
2022/04/02 11:50:49;;;;;;;;;;;;;;;;;;4996061;28;20293;-23
2022/04/02 11:53:15;;;;;;;;;;;;;;;;;;4996259;28;19918;-23
2022/04/02 11:55:41;;;;;;;;;;;;;;;;;;4996597;28;19925;-22
2022/04/02 11:58:07;;;;;;;;;;;;;;;;;;4996104;28;19910;-22
2022/04/02 12:00:33;;;;;;;;;;;;;;;;;;4996015;28;19913;-23
2022/04/02 12:02:59;;;;;;;;;;;;;;;;;;4996197;28;19924;-22
2022/04/02 12:05:25;;;;;;;;;;;;;;;;;;4996109;28;19910;-21
2022/04/02 12:07:51;;;;;;;;;;;;;;;;;;4978617;28;19926;-25
2022/04/02 12:10:17;;;;;;;;;;;;;;;;;;4995893;28;19983;-21
2022/04/02 12:12:43;;;;;;;;;;;;;;;;;;4995740;28;19914;-21
2022/04/02 12:15:09;;;;;;;;;;;;;;;;;;4995729;28;19910;-21
2022/04/02 12:17:36;;;;;;;;;;;;;;;;;;4995755;28;19917;-21
2022/04/02 12:20:03;;;;;;;;;;;;;;;;;;4995947;28;19910;-21
2022/04/02 12:22:31;;;;;;;;;;;;;;;;;;4995564;28;20341;-21
2022/04/02 12:24:57;;;;;;;;;;;;;;;;;;4995445;28;19932;-23
2022/04/02 12:27:23;;;;;;;;;;;;;;;;;;4995143;28;19924;-24
2022/04/02 12:29:49;;;;;;;;;;;;;;;;;;4995629;28;19987;-27
2022/04/02 12:32:15;;;;;;;;;;;;;;;;;;4995523;28;19909;-21
2022/04/02 12:34:41;;;;;;;;;;;;;;;;;;4995035;28;19914;-24
2022/04/02 12:37:07;;;;;;;;;;;;;;;;;;4994995;28;19913;-21
2022/04/02 12:39:33;;;;;;;;;;;;;;;;;;4994892;28;19984;-22
2022/04/02 12:41:59;;;;;;;;;;;;;;;;;;4995388;28;19918;-22
2022/04/02 12:44:25;;;;;;;;;;;;;;;;;;4994843;28;19918;-23
2022/04/02 12:46:52;;;;;;;;;;;;;;;;;;4994791;28;19984;-21
2022/04/02 12:49:18;;;;;;;;;;;;;;;;;;4994681;28;20332;-23
2022/04/02 12:51:44;;;;;;;;;;;;;;;;;;4995270;28;19967;-24
2022/04/02 12:54:11;;;;;;;;;;;;;;;;;;4994662;28;19925;-21
2022/04/02 12:56:40;;;;;;;;;;;;;;;;;;4994682;28;19921;-24
2022/04/02 12:59:06;;;;;;;;;;;;;;;;;;4995054;28;19925;-22
2022/04/02 13:01:35;;;;;;;;;;;;;;;;;;4994951;28;20005;-21
2022/04/02 13:04:02;;;;;;;;;;;;;;;;;;4994927;28;20008;-25
2022/04/02 13:06:28;;;;;;;;;;;;;;;;;;4994728;28;20009;-21
2022/04/02 13:08:54;;;;;;;;;;;;;;;;;;4994767;28;20012;-22
2022/04/02 13:11:20;;;;;;;;;;;;;;;;;;4994919;28;20008;-20
2022/04/02 13:13:46;;;;;;;;;;;;;;;;;;4978291;28;20238;-21
2022/04/02 13:16:14;;;;;;;;;;;;;;;;;;4999169;28;20222;-21
2022/04/02 13:21:24;;;;;;;;;;;;;;;;;;4999361;28;20206;-22
2022/04/02 13:23:50;;;;;;;;;;;;;;;;;;4998849;28;19974;-22
2022/04/02 13:26:16;;;;;;;;;;;;;;;;;;4981575;28;19913;-21
2022/04/02 13:28:43;;;;;;;;;;;;;;;;;;4981149;28;20357;-23
2022/04/02 13:31:09;;;;;;;;;;;;;;;;;;4998608;28;19914;-23
2022/04/02 13:33:35;;;;;;;;;;;;;;;;;;4998703;28;19917;-25
2022/04/02 13:36:01;;;;;;;;;;;;;;;;;;4998878;28;19914;-22
2022/04/02 13:38:27;;;;;;;;;;;;;;;;;;4999125;28;20209;-22
2022/04/02 13:40:56;;;;;;;;;;;;;;;;;;4981389;28;19921;-21
2022/04/02 13:43:22;;;;;;;;;;;;;;;;;;4998468;28;20253;-22
2022/04/02 13:45:48;;;;;;;;;;;;;;;;;;4999084;28;19924;-22
2022/04/02 13:48:14;;;;;;;;;;;;;;;;;;4998876;28;19917;-26
2022/04/02 13:50:40;;;;;;;;;;;;;;;;;;4998410;28;19913;-24
2022/04/02 13:53:06;;;;;;;;;;;;;;;;;;4998372;28;19925;-23
2022/04/02 13:55:32;;;;;;;;;;;;;;;;;;4998406;28;19910;-24
2022/04/02 13:57:58;;;;;;;;;;;;;;;;;;4998779;28;19913;-23
2022/04/02 14:00:23;;;;;;;;;;;;;;;;;;4980910;28;20324;-21
2022/04/02 14:02:51;;;;;;;;;;;;;;;;;;4998448;28;19910;-22
2022/04/02 14:05:17;;;;;;;;;;;;;;;;;;4998596;28;19980;-21
2022/04/02 14:07:43;;;;;;;;;;;;;;;;;;4998564;28;19922;-20
2022/04/02 14:10:12;;;;;;;;;;;;;;;;;;4998250;28;19917;-21
2022/04/02 14:12:38;;;;;;;;;;;;;;;;;;4998393;28;19980;-25
2022/04/02 14:15:04;;;;;;;;;;;;;;;;;;4997972;28;19999;-23
2022/04/02 14:17:30;;;;;;;;;;;;;;;;;;4997902;28;19910;-22
2022/04/02 14:19:56;;;;;;;;;;;;;;;;;;4997788;28;19914;-22
2022/04/02 14:22:23;;;;;;;;;;;;;;;;;;4997863;28;19913;-22
2022/04/02 14:24:49;;;;;;;;;;;;;;;;;;4998004;28;20293;-20
2022/04/02 14:27:15;;;;;;;;;;;;;;;;;;4997673;28;19952;-21
2022/04/02 14:29:44;;;;;;;;;;;;;;;;;;4980478;28;19914;-23
2022/04/02 14:32:10;;;;;;;;;;;;;;;;;;4980359;28;20000;-21
2022/04/02 14:34:36;;;;;;;;;;;;;;;;;;4980422;28;19949;-22
2022/04/02 14:37:02;;;;;;;;;;;;;;;;;;4980356;28;19961;-20
2022/04/02 14:39:28;;;;;;;;;;;;;;;;;;4997686;28;19921;-25
2022/04/02 14:41:54;;;;;;;;;;;;;;;;;;4980981;28;19984;-21
2022/04/02 14:44:20;;;;;;;;;;;;;;;;;;4997563;28;19914;-23
2022/04/02 14:46:46;;;;;;;;;;;;;;;;;;4997448;28;20357;-21
2022/04/02 14:49:12;;;;;;;;;;;;;;;;;;4997476;28;19914;-22
2022/04/02 14:51:38;;;;;;;;;;;;;;;;;;4980975;28;19936;-21
2022/04/02 14:54:04;;;;;;;;;;;;;;;;;;4997205;28;19910;-20
2022/04/02 14:56:30;;;;;;;;;;;;;;;;;;4997313;28;19924;-22
2022/04/02 14:58:56;;;;;;;;;;;;;;;;;;4997300;28;19913;-20
2022/04/02 15:01:22;;;;;;;;;;;;;;;;;;4997185;28;19940;-20
2022/04/02 15:03:48;;;;;;;;;;;;;;;;;;4997182;28;19964;-19
2022/04/02 15:06:14;;;;;;;;;;;;;;;;;;4997189;28;20242;-24
2022/04/02 15:08:40;;;;;;;;;;;;;;;;;;4997155;28;19994;-20
2022/04/02 15:11:06;;;;;;;;;;;;;;;;;;4997190;28;19914;-20
2022/04/02 15:13:32;;;;;;;;;;;;;;;;;;4996956;28;20317;-21
2022/04/02 15:15:58;;;;;;;;;;;;;;;;;;4997051;28;19910;-21
2022/04/02 15:18:24;;;;;;;;;;;;;;;;;;4997040;28;19917;-20
2022/04/02 15:20:50;;;;;;;;;;;;;;;;;;4979763;28;20328;-20
2022/04/02 15:23:16;;;;;;;;;;;;;;;;;;4997069;28;19914;-22
2022/04/02 15:25:43;;;;;;;;;;;;;;;;;;4979532;28;19922;-20
2022/04/02 15:28:09;;;;;;;;;;;;;;;;;;4996756;28;19925;-20
2022/04/02 15:30:35;;;;;;;;;;;;;;;;;;4979545;28;20486;-20
2022/04/02 15:33:01;;;;;;;;;;;;;;;;;;4996880;28;20271;-20
2022/04/02 15:35:27;;;;;;;;;;;;;;;;;;4979519;28;19910;-21
2022/04/02 15:37:53;;;;;;;;;;;;;;;;;;4996502;28;19914;-19
2022/04/02 15:40:21;;;;;;;;;;;;;;;;;;4996917;28;19913;-20
2022/04/02 15:42:47;;;;;;;;;;;;;;;;;;4996557;28;20258;-19
2022/04/02 15:45:13;;;;;;;;;;;;;;;;;;4996520;28;19972;-19
2022/04/02 15:47:41;;;;;;;;;;;;;;;;;;4979211;28;19918;-20
2022/04/02 15:50:06;;;;;;;;;;;;;;;;;;4996660;28;20273;-22
2022/04/02 15:52:33;;;;;;;;;;;;;;;;;;4996341;28;19920;-22
2022/04/02 15:54:59;;;;;;;;;;;;;;;;;;4996223;28;19914;-20
2022/04/02 15:57:25;;;;;;;;;;;;;;;;;;4996327;28;19976;-21
2022/04/02 15:59:53;;;;;;;;;;;;;;;;;;4996776;28;19979;-21
2022/04/02 16:02:19;;;;;;;;;;;;;;;;;;4996106;28;19920;-20
2022/04/02 16:04:45;;;;;;;;;;;;;;;;;;4996341;28;19918;-26
2022/04/02 16:07:11;;;;;;;;;;;;;;;;;;4996073;28;20355;-21
2022/04/02 16:09:37;;;;;;;;;;;;;;;;;;4996054;28;20242;-23
2022/04/02 16:12:03;;;;;;;;;;;;;;;;;;4995910;28;20001;-22
2022/04/02 16:14:29;;;;;;;;;;;;;;;;;;4996005;28;19949;-20
2022/04/02 16:16:55;;;;;;;;;;;;;;;;;;4995892;28;20012;-21
2022/04/02 16:19:21;;;;;;;;;;;;;;;;;;4996119;28;20230;-21
2022/04/02 16:21:47;;;;;;;;;;;;;;;;;;4996122;28;19968;-20
2022/04/02 16:24:13;;;;;;;;;;;;;;;;;;4995583;28;20349;-21
2022/04/02 16:26:39;;;;;;;;;;;;;;;;;;4995792;28;19913;-21
2022/04/02 16:29:05;;;;;;;;;;;;;;;;;;4978522;28;19979;-20
2022/04/02 16:31:33;;;;;;;;;;;;;;;;;;4995759;28;19910;-21
2022/04/02 16:33:59;;;;;;;;;;;;;;;;;;4995470;28;19948;-20
2022/04/02 16:36:25;;;;;;;;;;;;;;;;;;4995639;28;19980;-20
2022/04/02 16:38:51;;;;;;;;;;;;;;;;;;4978484;28;19914;-20
2022/04/02 16:41:17;;;;;;;;;;;;;;;;;;4995658;28;19914;-20
2022/04/02 16:43:43;;;;;;;;;;;;;;;;;;4996011;28;19917;-24